Amherst, TX

8:09 PM CST on December 07, 2016 (GMT -0600)
CLAYTON HOME | | Change Station

Elev 3560 ft 33.91 °N, 102.33 °W | Updated 34 seconds ago

Overcast
Overcast
31.3 °F
Feels Like 23 °F
N
9.4
Wind Variable Wind from NE

Today
High -- | Low -- °F
--% Chance of Precip.
Yesterday
High -- | Low -- °F
Precip. -- in
Pressure 30.27 in
Visibility 10.0 miles
Clouds Overcast 2400 ft
Windchill 23 °F
Dew Point 24 °F
Humidity 74%
Rainfall 0.00 in
Snow Depth Not available.
7:42 AM 5:40 PM
First Quarter, 58% visible
METAR KPVW 080155Z AUTO 05012G18KT 10SM OVC024 00/M05 A3027 RMK AO2 T10031048 TSNO
Pressure 30.27 in
Visibility 10.0 miles
Clouds Overcast 2400 ft
Windchill 23 °F
Dew Point 24 °F
Humidity 74%
Rainfall 0.00 in
Snow Depth Not available.
7:42 AM 5:40 PM
First Quarter, 58% visible
METAR KPVW 080155Z AUTO 05012G18KT 10SM OVC024 00/M05 A3027 RMK AO2 T10031048 TSNO

10-Day Weather Forecast

Almanac

Astronomy

Dec. 07, 2016 Rise Set
Actual Time
Civil Twilight
Nautical Twilight
Astronomical Twilight
Moon
Length of Visible Light
Length of Day
Tomorrow will be .
, % of the Moon is Illuminated

Today's Extremes

State Highs State Lows

Community

WunderPhotos

Upload Photos

1,956,259 photos uploaded!

WunderBlog® & News

Nearby

Air Quality

  Air Quality AQ Index Pollutant
Not available.

Snow Depth

Station Depth Elevation

Earthquake Activity

City Distance Mag. Time & Date
Minimum magnitude displayed is 2.5.

Coastal Water Temperatures

Place Temperature

Stations

Nearby Weather Stations

Station Location Temp. Windchill Dew Point Humidity Wind Precip. Elev Updated Type
                   

Watches & Warnings

There are currently no watches in effect.